createdAt,value
2018-08-18T00:00:01.672Z,68.52
2018-08-18T00:01:01.665Z,68.62
2018-08-18T00:02:01.649Z,68.82
2018-08-18T00:03:01.640Z,68.21
2018-08-18T00:04:01.656Z,68.62
2018-08-18T00:05:01.620Z,68.32
2018-08-18T00:06:01.606Z,68.32
2018-08-18T00:07:01.606Z,68.41
2018-08-18T00:08:01.583Z,68.05
2018-08-18T00:09:01.594Z,69.35
2018-08-18T00:10:01.563Z,69.06
2018-08-18T00:11:01.550Z,69.06
2018-08-18T00:12:01.542Z,69.35
2018-08-18T00:13:01.556Z,69.45
2018-08-18T00:14:01.517Z,69.56
2018-08-18T00:15:01.509Z,69.65
2018-08-18T00:16:01.495Z,69.65
2018-08-18T00:17:01.485Z,69.56
2018-08-18T00:18:01.498Z,69.65
2018-08-18T00:19:01.463Z,70.36
2018-08-18T00:20:01.458Z,69.99
2018-08-18T00:21:01.477Z,69.69
2018-08-18T00:22:01.432Z,70.50
2018-08-18T00:23:01.422Z,70.29
2018-08-18T00:24:01.408Z,70.09
2018-08-18T00:25:01.398Z,70.39
2018-08-18T00:26:01.446Z,70.59
2018-08-18T00:27:01.395Z,70.50
2018-08-18T00:28:01.391Z,70.19
2018-08-18T00:29:01.428Z,70.39
2018-08-18T00:30:01.342Z,70.39
2018-08-18T00:31:01.353Z,70.39
2018-08-18T00:32:01.326Z,70.59
2018-08-18T00:33:01.348Z,70.89
2018-08-18T00:34:01.310Z,70.70
2018-08-18T00:35:01.288Z,70.70
2018-08-18T00:36:01.298Z,71.09
2018-08-18T00:37:01.265Z,70.63
2018-08-18T00:38:01.256Z,70.93
2018-08-18T00:39:01.244Z,71.53
2018-08-18T00:40:01.281Z,71.30
2018-08-18T00:41:01.230Z,71.23
2018-08-18T00:42:01.216Z,71.43
2018-08-18T00:43:01.231Z,71.63
2018-08-18T00:44:01.189Z,71.43
2018-08-18T00:45:01.177Z,71.43
2018-08-18T00:46:01.166Z,71.53
2018-08-18T00:47:01.154Z,71.53
2018-08-18T00:48:01.195Z,71.63
2018-08-18T00:49:01.133Z,71.43
2018-08-18T00:50:01.127Z,71.73
2018-08-18T00:51:01.111Z,71.53
2018-08-18T00:52:01.100Z,71.63
2018-08-18T00:53:01.110Z,71.73
2018-08-18T00:54:01.077Z,71.13
2018-08-18T00:55:01.071Z,71.33
2018-08-18T00:56:01.064Z,71.53
2018-08-18T00:57:01.045Z,71.33
2018-08-18T00:58:01.067Z,71.23
2018-08-18T00:59:01.028Z,71.53
2018-08-18T01:00:01.020Z,71.53
2018-08-18T01:01:01.001Z,71.33
2018-08-18T01:02:00.991Z,71.13
2018-08-18T01:03:01.005Z,71.43
2018-08-18T01:04:00.975Z,71.03
2018-08-18T01:05:00.966Z,71.23
2018-08-18T01:06:00.946Z,71.43
2018-08-18T01:07:00.935Z,71.53
2018-08-18T01:08:00.944Z,71.13
2018-08-18T01:09:00.934Z,71.63
2018-08-18T01:10:00.926Z,71.53
2018-08-18T01:11:00.991Z,71.63
2018-08-18T01:12:01.011Z,71.33
2018-08-18T01:13:00.998Z,71.43
2018-08-18T01:14:01.038Z,71.23
2018-08-18T01:15:00.870Z,71.43
2018-08-18T01:16:00.837Z,72.03
2018-08-18T01:17:00.826Z,71.53
2018-08-18T01:18:00.814Z,71.83
2018-08-18T01:19:00.824Z,71.73
2018-08-18T01:20:00.792Z,71.43
2018-08-18T01:21:00.782Z,71.53
2018-08-18T01:22:00.777Z,71.33
2018-08-18T01:23:00.759Z,71.33
2018-08-18T01:24:00.776Z,71.33
2018-08-18T01:25:00.737Z,71.33
2018-08-18T01:26:00.750Z,71.53
2018-08-18T01:27:00.753Z,71.53
2018-08-18T01:28:00.708Z,71.03
2018-08-18T01:29:00.694Z,71.43
2018-08-18T01:30:00.684Z,71.53
2018-08-18T01:31:00.697Z,71.23
2018-08-18T01:32:00.663Z,71.43
2018-08-18T01:33:00.653Z,71.53
2018-08-18T01:34:00.638Z,71.36
2018-08-18T01:35:00.651Z,71.47
2018-08-18T01:36:00.638Z,71.87
2018-08-18T01:37:00.605Z,71.56
2018-08-18T01:38:00.597Z,71.77
2018-08-18T01:39:00.583Z,71.87
2018-08-18T01:40:00.572Z,71.87
2018-08-18T01:41:00.589Z,72.17
2018-08-18T01:42:00.549Z,72.37
2018-08-18T01:43:00.543Z,71.87
2018-08-18T01:44:00.529Z,72.31
2018-08-18T01:45:00.516Z,72.41
2018-08-18T01:46:00.529Z,72.67
2018-08-18T01:47:00.495Z,71.91
2018-08-18T01:48:00.505Z,71.91
2018-08-18T01:49:00.472Z,72.41
2018-08-18T01:50:00.465Z,71.77
2018-08-18T01:51:00.458Z,72.00
2018-08-18T01:52:00.439Z,71.80
2018-08-18T01:53:00.458Z,71.87
2018-08-18T01:54:00.419Z,72.37
2018-08-18T01:55:00.407Z,72.20
2018-08-18T01:56:00.396Z,72.31
2018-08-18T01:57:00.384Z,72.41
2018-08-18T01:58:00.395Z,71.91
2018-08-18T01:59:00.363Z,72.31
2018-08-18T02:00:00.353Z,72.31
2018-08-18T02:01:00.340Z,72.20
2018-08-18T02:02:00.329Z,73.32
2018-08-18T02:03:00.341Z,71.91
2018-08-18T02:04:00.307Z,71.94
2018-08-18T02:05:00.296Z,73.25
2018-08-18T02:06:00.288Z,73.35
2018-08-18T02:07:00.294Z,73.35
2018-08-18T02:08:00.267Z,73.35
2018-08-18T02:09:00.254Z,73.25
2018-08-18T02:10:00.262Z,72.54
2018-08-18T02:11:00.230Z,73.25
2018-08-18T02:12:00.239Z,73.25
2018-08-18T02:13:00.208Z,73.14
2018-08-18T02:14:00.197Z,72.24
2018-08-18T02:15:00.207Z,73.35
2018-08-18T02:16:00.199Z,72.64
2018-08-18T02:17:00.204Z,72.14
2018-08-18T02:18:00.156Z,72.94
2018-08-18T02:19:00.144Z,72.24
2018-08-18T02:20:00.194Z,72.64
2018-08-18T02:21:00.125Z,72.54
2018-08-18T02:22:00.148Z,72.64
2018-08-18T02:23:00.099Z,72.54
2018-08-18T02:24:00.120Z,72.64
2018-08-18T02:25:00.083Z,72.14
2018-08-18T02:26:00.065Z,73.48
2018-08-18T02:27:00.054Z,73.35
2018-08-18T02:28:00.045Z,72.04
2018-08-18T02:29:00.063Z,72.04
2018-08-18T02:30:00.021Z,73.05
2018-08-18T02:31:00.011Z,73.08
2018-08-18T02:32:00.002Z,73.14
2018-08-18T02:32:59.990Z,73.35
2018-08-18T02:34:00.015Z,73.35
2018-08-18T02:34:59.971Z,72.64
2018-08-18T02:35:59.956Z,73.25
2018-08-18T02:36:59.950Z,73.45
2018-08-18T02:37:59.933Z,72.54
2018-08-18T02:38:59.943Z,73.18
2018-08-18T02:39:59.966Z,73.45
2018-08-18T02:40:59.928Z,73.25
2018-08-18T02:41:59.888Z,72.85
2018-08-18T02:42:59.877Z,72.64
2018-08-18T02:43:59.868Z,73.08
2018-08-18T02:44:59.860Z,72.64
2018-08-18T02:45:59.874Z,73.28
2018-08-18T02:46:59.836Z,72.64
2018-08-18T02:47:59.826Z,72.98
2018-08-18T02:48:59.816Z,72.64
2018-08-18T02:49:59.801Z,72.88
2018-08-18T02:50:59.841Z,72.88
2018-08-18T02:51:59.811Z,72.58
2018-08-18T02:52:59.768Z,72.88
2018-08-18T02:53:59.760Z,72.88
2018-08-18T02:54:59.746Z,72.44
2018-08-18T02:55:59.734Z,72.54
2018-08-18T02:56:59.749Z,73.48
2018-08-18T02:57:59.712Z,73.08
2018-08-18T02:58:59.702Z,72.98
2018-08-18T02:59:59.691Z,73.28
2018-08-18T03:00:59.679Z,72.94
2018-08-18T03:01:59.690Z,72.98
2018-08-18T03:02:59.695Z,72.88
2018-08-18T03:03:59.646Z,72.98
2018-08-18T03:04:59.635Z,72.88
2018-08-18T03:05:59.625Z,73.14
2018-08-18T03:06:59.643Z,73.28
2018-08-18T03:07:59.682Z,72.58
2018-08-18T03:08:59.595Z,73.25
2018-08-18T03:09:59.585Z,72.38
2018-08-18T03:10:59.573Z,72.58
2018-08-18T03:11:59.589Z,72.98
2018-08-18T03:12:59.547Z,73.18
2018-08-18T03:13:59.536Z,72.85
2018-08-18T03:14:59.525Z,72.85
2018-08-18T03:15:59.513Z,72.94
2018-08-18T03:16:59.541Z,73.05
2018-08-18T03:17:59.491Z,73.25
2018-08-18T03:18:59.483Z,73.68
2018-08-18T03:19:59.470Z,73.28
2018-08-18T03:20:59.460Z,72.98
2018-08-18T03:21:59.471Z,73.08
2018-08-18T03:22:59.441Z,73.48
2018-08-18T03:23:59.453Z,73.28
2018-08-18T03:24:59.415Z,73.48
2018-08-18T03:25:59.404Z,73.88
2018-08-18T03:26:59.392Z,73.99
2018-08-18T03:27:59.403Z,73.99
2018-08-18T03:28:59.432Z,73.48
2018-08-18T03:29:59.360Z,73.48
2018-08-18T03:30:59.349Z,73.58
2018-08-18T03:31:59.345Z,73.28
2018-08-18T03:32:59.347Z,73.79
2018-08-18T03:33:59.319Z,73.75
2018-08-18T03:34:59.331Z,73.08
2018-08-18T03:35:59.293Z,73.35
2018-08-18T03:36:59.282Z,73.25
2018-08-18T03:37:59.270Z,73.14
2018-08-18T03:38:59.281Z,73.48
2018-08-18T03:39:59.270Z,73.45
2018-08-18T03:40:59.241Z,73.28
2018-08-18T03:41:59.227Z,73.55
2018-08-18T03:42:59.216Z,74.05
2018-08-18T03:43:59.208Z,73.65
2018-08-18T03:44:59.216Z,73.95
2018-08-18T03:45:59.183Z,73.45
2018-08-18T03:46:59.185Z,73.65
2018-08-18T03:47:59.161Z,73.95
2018-08-18T03:48:59.151Z,73.85
2018-08-18T03:49:59.148Z,73.99
2018-08-18T03:50:59.128Z,73.65
2018-08-18T03:51:59.136Z,73.65
2018-08-18T03:52:59.106Z,73.14
2018-08-18T03:53:59.095Z,73.25
2018-08-18T03:54:59.084Z,73.25
2018-08-18T03:55:59.073Z,72.74
2018-08-18T03:56:59.083Z,73.14
2018-08-18T03:57:59.051Z,73.45
2018-08-18T03:58:59.040Z,73.25
2018-08-18T03:59:59.070Z,73.55
2018-08-18T04:00:59.027Z,72.98
2018-08-18T04:01:59.154Z,73.14
2018-08-18T04:02:58.995Z,73.14
2018-08-18T04:03:59.068Z,73.55
2018-08-18T04:04:58.977Z,73.35
2018-08-18T04:05:58.979Z,73.95
2018-08-18T04:06:58.999Z,73.05
2018-08-18T04:07:58.940Z,73.58
2018-08-18T04:08:59.031Z,73.58
2018-08-18T04:09:58.923Z,73.95
2018-08-18T04:10:58.907Z,74.19
2018-08-18T04:11:58.916Z,73.99
2018-08-18T04:12:58.911Z,73.79
2018-08-18T04:13:58.882Z,73.65
2018-08-18T04:14:58.877Z,73.08
2018-08-18T04:15:58.855Z,73.65
2018-08-18T04:16:58.841Z,74.15
2018-08-18T04:17:58.852Z,73.65
2018-08-18T04:18:58.858Z,73.95
2018-08-18T04:19:58.811Z,73.88
2018-08-18T04:20:58.798Z,73.95
2018-08-18T04:21:58.786Z,73.75
2018-08-18T04:22:58.800Z,74.05
2018-08-18T04:23:58.768Z,73.88
2018-08-18T04:24:58.783Z,73.65
2018-08-18T04:25:58.743Z,74.55
2018-08-18T04:26:58.731Z,73.28
2018-08-18T04:27:58.720Z,73.68
2018-08-18T04:28:58.709Z,74.15
2018-08-18T04:29:58.727Z,73.95
2018-08-18T04:30:58.687Z,73.68
2018-08-18T04:31:58.677Z,73.88
2018-08-18T04:32:58.668Z,73.35
2018-08-18T04:33:58.655Z,73.14
2018-08-18T04:34:58.665Z,73.05
2018-08-18T04:35:58.665Z,73.05
2018-08-18T04:36:58.621Z,73.25
2018-08-18T04:37:58.613Z,73.68
2018-08-18T04:38:58.598Z,72.85
2018-08-18T04:39:58.588Z,72.94
2018-08-18T04:40:58.597Z,72.47
2018-08-18T04:41:58.572Z,73.08
2018-08-18T04:42:58.559Z,73.35
2018-08-18T04:43:58.589Z,73.55
2018-08-18T04:44:58.533Z,72.85
2018-08-18T04:45:58.545Z,72.85
2018-08-18T04:46:58.558Z,73.45
2018-08-18T04:47:58.500Z,72.85
2018-08-18T04:48:58.489Z,72.78
2018-08-18T04:49:58.480Z,72.98
2018-08-18T04:50:58.489Z,72.78
2018-08-18T04:51:58.477Z,72.64
2018-08-18T04:52:58.449Z,73.05
2018-08-18T04:53:58.435Z,72.04
2018-08-18T04:54:58.424Z,72.14
2018-08-18T04:55:58.440Z,72.14
2018-08-18T04:56:58.470Z,72.34
2018-08-18T04:57:58.393Z,73.05
2018-08-18T04:58:58.382Z,73.14
2018-08-18T04:59:58.368Z,72.24
2018-08-18T05:00:58.357Z,72.54
2018-08-18T05:01:58.372Z,71.84
2018-08-18T05:02:58.335Z,72.44
2018-08-18T05:03:58.327Z,72.14
2018-08-18T05:04:58.351Z,72.11
2018-08-18T05:05:58.302Z,72.04
2018-08-18T05:06:58.317Z,72.34
2018-08-18T05:07:58.281Z,71.84
2018-08-18T05:08:58.343Z,72.34
2018-08-18T05:09:58.258Z,72.44
2018-08-18T05:10:58.288Z,71.84
2018-08-18T05:11:58.236Z,72.51
2018-08-18T05:12:58.225Z,72.34
2018-08-18T05:13:58.215Z,72.71
2018-08-18T05:14:58.206Z,72.34
2018-08-18T05:15:58.230Z,71.91
2018-08-18T05:16:58.184Z,72.00
2018-08-18T05:17:58.172Z,72.41
2018-08-18T05:18:58.238Z,72.31
2018-08-18T05:19:58.152Z,72.20
2018-08-18T05:20:58.167Z,72.00
2018-08-18T05:21:58.149Z,71.91
2018-08-18T05:22:58.115Z,72.61
2018-08-18T05:23:58.104Z,72.71
2018-08-18T05:24:58.094Z,72.31
2018-08-18T05:25:58.087Z,72.11
2018-08-18T05:26:58.094Z,72.31
2018-08-18T05:27:58.060Z,71.91
2018-08-18T05:28:58.048Z,71.91
2018-08-18T05:29:58.038Z,71.56
2018-08-18T05:30:58.081Z,71.56
2018-08-18T05:31:58.038Z,71.87
2018-08-18T05:32:58.026Z,71.26
2018-08-18T05:33:57.993Z,71.30
2018-08-18T05:34:57.984Z,71.36
2018-08-18T05:35:57.974Z,71.56
2018-08-18T05:36:57.961Z,71.47
2018-08-18T05:37:57.971Z,71.56
2018-08-18T05:38:57.961Z,71.56
2018-08-18T05:39:57.928Z,70.86
2018-08-18T05:40:57.916Z,71.26
2018-08-18T05:41:57.906Z,71.56
2018-08-18T05:42:57.894Z,71.36
2018-08-18T05:43:57.905Z,70.66
2018-08-18T05:44:57.872Z,70.93
2018-08-18T05:45:57.864Z,71.87
2018-08-18T05:46:57.849Z,71.47
2018-08-18T05:47:57.841Z,71.67
2018-08-18T05:48:57.854Z,71.53
2018-08-18T05:49:57.818Z,71.87
2018-08-18T05:50:57.806Z,71.36
2018-08-18T05:51:57.795Z,71.67
2018-08-18T05:52:57.783Z,71.47
2018-08-18T05:53:57.803Z,72.00
2018-08-18T05:54:57.761Z,71.97
2018-08-18T05:55:57.776Z,71.91
2018-08-18T05:56:57.742Z,72.11
2018-08-18T05:57:57.759Z,71.77
2018-08-18T05:58:57.771Z,71.56
2018-08-18T05:59:57.707Z,71.36
2018-08-18T06:00:57.696Z,71.47
2018-08-18T06:01:57.794Z,72.17
2018-08-18T06:02:57.680Z,71.97
2018-08-18T06:03:57.688Z,72.47
2018-08-18T06:04:57.652Z,72.67
2018-08-18T06:05:57.661Z,72.11
2018-08-18T06:06:57.644Z,71.80
2018-08-18T06:07:57.619Z,72.37
2018-08-18T06:08:57.617Z,72.27
2018-08-18T06:09:57.595Z,72.47
2018-08-18T06:10:57.611Z,72.77
2018-08-18T06:11:57.638Z,71.77
2018-08-18T06:12:57.566Z,71.67
2018-08-18T06:13:57.552Z,72.27
2018-08-18T06:14:57.563Z,72.17
2018-08-18T06:15:57.563Z,72.07
2018-08-18T06:16:57.521Z,72.07
2018-08-18T06:17:57.509Z,72.07
2018-08-18T06:18:57.497Z,70.96
2018-08-18T06:19:57.486Z,70.96
2018-08-18T06:20:57.498Z,70.93
2018-08-18T06:21:57.464Z,71.23
2018-08-18T06:22:57.453Z,71.40
2018-08-18T06:23:57.443Z,70.89
2018-08-18T06:24:57.434Z,69.65
2018-08-18T06:25:57.450Z,69.18
2018-08-18T06:26:57.420Z,69.59
2018-08-18T06:27:57.399Z,68.88
2018-08-18T06:28:57.388Z,69.06
2018-08-18T06:29:57.377Z,68.85
2018-08-18T06:30:57.436Z,68.45
2018-08-18T06:31:57.354Z,68.65
2018-08-18T06:32:57.350Z,68.55
2018-08-18T06:33:57.367Z,68.35
2018-08-18T06:34:57.450Z,68.35
2018-08-18T06:35:57.317Z,68.75
2018-08-18T06:36:57.301Z,67.85
2018-08-18T06:37:57.290Z,68.55
2018-08-18T06:38:57.311Z,68.25
2018-08-18T06:39:57.270Z,68.15
2018-08-18T06:40:57.315Z,68.15
2018-08-18T06:41:57.393Z,68.02
2018-08-18T06:42:57.233Z,67.61
2018-08-18T06:43:57.252Z,67.91
2018-08-18T06:44:57.214Z,68.21
2018-08-18T06:45:57.201Z,68.02
2018-08-18T06:46:57.193Z,67.51
2018-08-18T06:47:57.178Z,68.08
2018-08-18T06:48:57.513Z,67.58
2018-08-18T06:49:57.157Z,67.68
2018-08-18T06:50:57.244Z,67.78
2018-08-18T06:51:57.135Z,67.98
2018-08-18T06:52:57.235Z,67.98
2018-08-18T06:53:57.112Z,68.45
2018-08-18T06:54:57.290Z,67.95
2018-08-18T06:55:57.091Z,66.85
2018-08-18T06:56:57.152Z,65.74
2018-08-18T06:57:57.090Z,66.44
2018-08-18T06:58:57.068Z,65.94
2018-08-18T06:59:57.075Z,64.24
2018-08-18T07:00:57.097Z,64.54
2018-08-18T07:01:57.035Z,64.54
2018-08-18T07:02:57.012Z,64.94
2018-08-18T07:03:57.001Z,64.74
2018-08-18T07:04:57.022Z,64.74
2018-08-18T07:05:57.054Z,64.24
2018-08-18T07:06:56.972Z,64.31
2018-08-18T07:07:56.958Z,64.11
2018-08-18T07:08:56.948Z,66.01
2018-08-18T07:09:56.978Z,64.51
2018-08-18T07:10:56.925Z,64.61
2018-08-18T07:11:56.913Z,64.88
2018-08-18T07:12:56.904Z,63.67
2018-08-18T07:13:56.896Z,63.98
2018-08-18T07:14:56.902Z,63.37
2018-08-18T07:15:56.871Z,64.07
2018-08-18T07:16:56.861Z,63.98
2018-08-18T07:17:56.850Z,64.15
2018-08-18T07:18:56.836Z,63.54
2018-08-18T07:19:56.847Z,63.01
2018-08-18T07:20:56.814Z,61.51
2018-08-18T07:21:56.803Z,61.01
2018-08-18T07:22:56.792Z,62.11
2018-08-18T07:23:56.784Z,63.51
2018-08-18T07:24:56.791Z,62.11
2018-08-18T07:25:56.759Z,61.31
2018-08-18T07:26:56.747Z,61.41
2018-08-18T07:27:56.737Z,60.98
2018-08-18T07:28:56.943Z,60.71
2018-08-18T07:29:56.748Z,60.21
2018-08-18T07:30:56.704Z,60.51
2018-08-18T07:31:56.716Z,60.88
2018-08-18T07:32:56.694Z,60.58
2018-08-18T07:33:56.674Z,60.28
2018-08-18T07:34:56.660Z,60.38
2018-08-18T07:35:56.650Z,60.11
2018-08-18T07:36:56.659Z,59.50
2018-08-18T07:37:56.632Z,60.71
2018-08-18T07:38:56.629Z,60.51
2018-08-18T07:39:56.607Z,61.38
2018-08-18T07:40:56.620Z,60.98
2018-08-18T07:41:56.613Z,60.48
2018-08-18T07:42:56.617Z,60.58
2018-08-18T07:43:56.563Z,59.25
2018-08-18T07:44:56.552Z,59.45
2018-08-18T07:45:56.562Z,59.25
2018-08-18T07:46:56.534Z,58.82
2018-08-18T07:47:56.529Z,57.62
2018-08-18T07:48:56.509Z,57.42
2018-08-18T07:49:56.575Z,57.12
2018-08-18T07:50:56.638Z,56.52
2018-08-18T07:51:56.584Z,56.62
2018-08-18T07:52:56.473Z,55.99
2018-08-18T07:53:56.458Z,56.09
2018-08-18T07:54:56.468Z,56.09
2018-08-18T07:55:56.457Z,56.39
2018-08-18T07:56:56.988Z,56.59
2018-08-18T07:57:56.449Z,57.09
2018-08-18T07:58:56.405Z,56.49
2018-08-18T07:59:56.432Z,55.09
2018-08-18T08:00:56.404Z,55.19
2018-08-18T08:01:56.370Z,54.10
2018-08-18T08:02:56.446Z,51.97
2018-08-18T08:03:56.349Z,52.67
2018-08-18T08:04:56.341Z,52.04
2018-08-18T08:05:56.352Z,52.47
2018-08-18T08:06:56.541Z,51.34
2018-08-18T08:07:56.305Z,52.14
2018-08-18T08:08:56.294Z,53.22
2018-08-18T08:09:56.284Z,53.22
2018-08-18T08:10:56.271Z,52.52
2018-08-18T08:11:56.281Z,49.32
2018-08-18T08:12:56.291Z,48.63
2018-08-18T08:20:20.991Z,49.30
2018-08-18T08:21:20.956Z,47.92
2018-08-18T08:22:20.999Z,47.90
2018-08-18T08:23:21.003Z,49.62
2018-08-18T08:24:20.941Z,49.82
2018-08-18T08:25:20.909Z,50.12
2018-08-18T08:26:20.898Z,48.93
2018-08-18T08:27:20.920Z,48.22
2018-08-18T08:28:20.878Z,47.13
2018-08-18T08:29:20.866Z,47.75
2018-08-18T08:30:20.855Z,48.72
2018-08-18T08:31:20.848Z,48.52
2018-08-18T08:32:20.857Z,46.53
2018-08-18T08:33:20.824Z,46.92
2018-08-18T08:34:20.813Z,46.83
2018-08-18T08:35:20.801Z,45.85
2018-08-18T08:36:20.811Z,47.22
2018-08-18T08:37:20.780Z,47.92
2018-08-18T08:38:20.768Z,48.02
2018-08-18T08:39:20.760Z,48.94
2018-08-18T08:40:20.748Z,49.62
2018-08-18T08:41:20.768Z,47.03
2018-08-18T08:42:20.727Z,46.43
2018-08-18T08:43:20.858Z,45.53
2018-08-18T08:44:20.704Z,44.73
2018-08-18T08:45:20.693Z,44.13
2018-08-18T08:46:20.712Z,46.33
2018-08-18T08:47:20.671Z,45.33
2018-08-18T08:48:20.660Z,45.23
2018-08-18T08:49:20.648Z,45.33
2018-08-18T08:50:20.639Z,45.93
2018-08-18T08:51:20.648Z,45.40
2018-08-18T08:52:20.621Z,45.81
2018-08-18T08:53:20.633Z,45.39
2018-08-18T08:54:20.593Z,46.58
2018-08-18T08:55:20.582Z,46.19
2018-08-18T08:56:20.571Z,44.91
2018-08-18T08:57:20.559Z,45.61
2018-08-18T08:58:20.578Z,45.71
2018-08-18T08:59:20.537Z,45.81
2018-08-18T09:00:20.529Z,45.21
2018-08-18T09:01:20.515Z,45.71
2018-08-18T09:02:20.504Z,45.81
2018-08-18T09:03:20.673Z,44.79
2018-08-18T09:04:20.483Z,44.51
2018-08-18T09:05:20.471Z,45.81
2018-08-18T09:06:20.461Z,45.81
2018-08-18T09:07:20.452Z,46.20
2018-08-18T09:08:20.458Z,46.91
2018-08-18T09:09:20.428Z,45.98
2018-08-18T09:10:20.477Z,45.39
2018-08-18T09:11:20.405Z,45.09
2018-08-18T09:12:20.394Z,46.31
2018-08-18T09:13:20.408Z,45.29
2018-08-18T09:14:20.392Z,45.31
2018-08-18T09:15:20.360Z,44.71
2018-08-18T09:16:20.348Z,44.71
2018-08-18T09:17:20.338Z,45.81
2018-08-18T09:18:20.356Z,45.31
2018-08-18T09:19:20.314Z,45.68
2018-08-18T09:20:20.304Z,43.69
2018-08-18T09:21:20.293Z,43.87
2018-08-18T09:22:20.287Z,43.77
2018-08-18T09:23:20.307Z,43.55
2018-08-18T09:24:20.261Z,44.02
2018-08-18T09:25:20.250Z,43.43
2018-08-18T09:26:20.248Z,42.71
2018-08-18T09:27:20.228Z,43.01
2018-08-18T09:28:20.249Z,42.41
2018-08-18T09:29:20.208Z,42.69
2018-08-18T09:30:20.199Z,43.76
2018-08-18T09:31:20.188Z,42.86
2018-08-18T09:32:20.173Z,45.14
2018-08-18T09:33:20.195Z,41.93
2018-08-18T09:34:20.152Z,42.13
2018-08-18T09:35:20.147Z,41.22
2018-08-18T09:36:20.227Z,40.82
2018-08-18T09:37:20.121Z,41.20
2018-08-18T09:38:20.150Z,40.80
2018-08-18T09:39:20.100Z,39.90
2018-08-18T09:40:20.091Z,40.19
2018-08-18T09:41:20.157Z,40.68
2018-08-18T09:42:20.071Z,39.98
2018-08-18T09:43:20.087Z,40.78
2018-08-18T09:44:20.050Z,40.09
2018-08-18T09:45:20.041Z,41.30
2018-08-18T09:46:20.071Z,40.42
2018-08-18T09:47:20.017Z,41.52
2018-08-18T09:48:20.196Z,41.24
2018-08-18T09:49:20.019Z,41.04
2018-08-18T09:50:20.002Z,42.83
2018-08-18T09:51:19.971Z,43.54
2018-08-18T09:52:19.964Z,42.55
2018-08-18T09:53:19.969Z,43.05
2018-08-18T09:54:19.938Z,43.54
2018-08-18T09:55:19.928Z,43.07
2018-08-18T09:56:19.916Z,43.35
2018-08-18T09:57:19.904Z,44.84
2018-08-18T09:58:19.917Z,42.94
2018-08-18T09:59:19.979Z,43.74
2018-08-18T10:00:19.897Z,43.27
2018-08-18T10:01:19.861Z,42.77
2018-08-18T10:02:19.850Z,43.05
2018-08-18T10:03:19.863Z,43.27
2018-08-18T10:04:19.829Z,43.66
2018-08-18T10:05:19.819Z,43.16
2018-08-18T10:06:19.884Z,42.97
2018-08-18T10:07:19.806Z,42.97
2018-08-18T10:08:19.816Z,43.27
2018-08-18T10:09:19.799Z,42.94
2018-08-18T10:10:19.765Z,42.75
2018-08-18T10:11:19.759Z,45.03
2018-08-18T10:12:19.778Z,42.43
2018-08-18T10:13:19.761Z,42.41
2018-08-18T10:14:19.780Z,45.09
2018-08-18T10:15:19.733Z,41.79
2018-08-18T10:16:19.699Z,40.70
2018-08-18T10:17:19.688Z,42.58
2018-08-18T10:18:19.677Z,42.47
2018-08-18T10:19:19.687Z,41.75
2018-08-18T10:20:19.655Z,40.96
2018-08-18T10:21:19.667Z,37.67
2018-08-18T10:22:19.635Z,40.84
2018-08-18T10:23:19.625Z,41.44
2018-08-18T10:24:19.614Z,41.33
2018-08-18T10:25:19.632Z,41.14
2018-08-18T10:26:19.592Z,40.82
2018-08-18T10:27:19.585Z,40.23
2018-08-18T10:28:19.571Z,38.32
2018-08-18T10:29:19.562Z,37.53
2018-08-18T10:30:19.570Z,38.03
2018-08-18T10:31:19.539Z,38.92
2018-08-18T10:32:19.549Z,37.73
2018-08-18T10:33:19.566Z,38.42
2018-08-18T10:34:19.510Z,37.91
2018-08-18T10:35:19.517Z,39.10
2018-08-18T10:36:19.484Z,38.31
2018-08-18T10:37:19.473Z,39.00
2018-08-18T10:38:19.463Z,37.62
2018-08-18T10:39:19.459Z,37.51
2018-08-18T10:40:19.463Z,38.39
2018-08-18T10:41:19.455Z,39.37
2018-08-18T10:42:19.421Z,37.00
2018-08-18T10:43:19.412Z,37.79
2018-08-18T10:44:19.425Z,37.89
2018-08-18T10:45:19.387Z,38.39
2018-08-18T10:46:19.377Z,36.90
2018-08-18T10:47:19.365Z,36.61
2018-08-18T10:48:19.355Z,37.62
2018-08-18T10:49:19.365Z,38.11
2018-08-18T10:50:19.337Z,37.12
2018-08-18T10:51:19.323Z,36.94
2018-08-18T10:52:19.313Z,37.51
2018-08-18T10:53:19.324Z,37.51
2018-08-18T10:54:19.291Z,38.59
2018-08-18T10:55:19.302Z,37.89
2018-08-18T10:56:19.273Z,37.40
2018-08-18T10:57:19.262Z,36.71
2018-08-18T10:58:19.250Z,38.57
2018-08-18T10:59:19.239Z,37.87
2018-08-18T11:00:19.257Z,37.56
2018-08-18T11:01:19.219Z,36.85
2018-08-18T11:02:19.212Z,37.56
2018-08-18T11:03:19.199Z,35.37
2018-08-18T11:04:19.201Z,36.73
2018-08-18T11:05:19.197Z,35.53
2018-08-18T11:06:19.165Z,34.53
2018-08-18T11:07:19.178Z,35.18
2018-08-18T11:08:19.145Z,33.89
2018-08-18T11:09:19.134Z,33.56
2018-08-18T11:10:19.154Z,31.67
2018-08-18T11:11:19.114Z,31.54
2018-08-18T11:12:19.104Z,33.08
2018-08-18T11:13:19.104Z,31.87
2018-08-18T11:14:19.090Z,29.97
2018-08-18T11:15:19.103Z,29.06
2018-08-18T11:16:19.069Z,28.53
2018-08-18T11:17:19.085Z,27.72
2018-08-18T11:18:19.055Z,25.73
2018-08-18T11:19:19.048Z,26.18
2018-08-18T11:20:19.083Z,26.26
2018-08-18T11:21:19.103Z,24.67
2018-08-18T11:22:19.024Z,24.08
2018-08-18T11:23:19.019Z,24.08
2018-08-18T11:24:19.129Z,23.89
2018-08-18T11:25:19.023Z,25.04
2018-08-18T11:26:19.086Z,26.11
2018-08-18T11:27:18.983Z,23.21
2018-08-18T11:28:19.202Z,24.56
2018-08-18T11:29:18.978Z,25.82
2018-08-18T11:30:18.961Z,24.05
2018-08-18T11:31:19.230Z,23.77
2018-08-18T11:32:18.952Z,23.77
2018-08-18T11:33:18.944Z,24.05
2018-08-18T11:34:19.211Z,24.61
2018-08-18T11:35:19.391Z,23.16
2018-08-18T11:36:19.518Z,23.64
2018-08-18T11:37:19.027Z,22.75
2018-08-18T11:38:19.327Z,23.53
2018-08-18T11:39:19.074Z,22.85
2018-08-18T11:40:19.033Z,23.53
2018-08-18T11:41:19.051Z,22.50
2018-08-18T11:42:19.228Z,23.79
2018-08-18T11:43:18.993Z,25.24
2018-08-18T11:44:18.899Z,23.49
2018-08-18T11:45:18.894Z,24.13
2018-08-18T11:46:18.892Z,25.63
2018-08-18T11:47:18.891Z,26.21
2018-08-18T11:48:18.872Z,26.63
2018-08-18T11:49:18.895Z,28.99
2018-08-18T11:50:18.827Z,27.62
2018-08-18T11:51:18.819Z,27.25
2018-08-18T11:52:18.811Z,28.53
2018-08-18T11:53:18.810Z,28.45
2018-08-18T11:54:18.825Z,29.44
2018-08-18T11:55:18.782Z,28.89
2018-08-18T11:56:18.794Z,29.72
2018-08-18T11:57:18.766Z,29.75
2018-08-18T11:58:18.768Z,31.81
2018-08-18T11:59:18.769Z,29.94
2018-08-18T12:00:18.736Z,29.75
2018-08-18T12:01:18.752Z,29.75
2018-08-18T12:02:18.731Z,29.76
2018-08-18T12:03:18.736Z,31.95
2018-08-18T12:04:18.729Z,32.20
2018-08-18T12:05:18.690Z,33.01
2018-08-18T12:06:18.699Z,33.23
2018-08-18T12:07:18.666Z,34.92
2018-08-18T12:08:18.657Z,34.92
2018-08-18T12:09:19.094Z,34.74
2018-08-18T12:10:18.636Z,35.14
2018-08-18T12:11:18.630Z,35.05
2018-08-18T12:12:18.615Z,35.22
2018-08-18T12:13:18.606Z,35.38
2018-08-18T12:14:18.618Z,35.35
2018-08-18T12:15:18.587Z,34.86
2018-08-18T12:16:18.598Z,34.05
2018-08-18T12:17:18.566Z,33.64
2018-08-18T12:18:18.557Z,33.94
2018-08-18T12:19:18.547Z,32.46
2018-08-18T12:20:18.563Z,32.26
2018-08-18T12:21:18.550Z,32.17
2018-08-18T12:22:18.578Z,32.54
2018-08-18T12:23:18.506Z,30.38
2018-08-18T12:24:18.497Z,32.72
2018-08-18T12:25:18.486Z,32.04
2018-08-18T12:26:18.497Z,32.21
2018-08-18T12:27:18.467Z,30.94
2018-08-18T12:28:18.456Z,30.55
2018-08-18T12:29:18.447Z,30.35
2018-08-18T12:30:18.440Z,30.73
2018-08-18T12:31:18.448Z,31.41
2018-08-18T12:32:18.418Z,30.04
2018-08-18T12:33:18.408Z,30.82
2018-08-18T12:34:18.418Z,29.75
2018-08-18T12:35:18.388Z,30.82
2018-08-18T12:36:18.471Z,30.02
2018-08-18T12:37:18.377Z,28.83
2018-08-18T12:38:18.358Z,29.43
2018-08-18T12:39:18.376Z,30.01
2018-08-18T12:40:18.341Z,29.83
2018-08-18T12:41:18.329Z,29.94
2018-08-18T12:42:18.326Z,29.86
2018-08-18T12:43:18.311Z,32.23
2018-08-18T12:44:18.320Z,31.92
2018-08-18T12:45:18.287Z,30.65
2018-08-18T12:46:18.279Z,31.60
2018-08-18T12:47:18.291Z,29.91
2018-08-18T12:48:18.258Z,30.01
2018-08-18T12:49:18.247Z,29.13
2018-08-18T12:50:18.531Z,29.43
2018-08-18T12:51:18.229Z,30.00
2018-08-18T12:52:18.221Z,28.92
2018-08-18T12:53:18.212Z,31.40
2018-08-18T13:26:01.640Z,28.08
2018-08-18T13:27:01.613Z,28.03
2018-08-18T13:28:01.603Z,29.63
2018-08-18T13:29:01.593Z,28.56
2018-08-18T13:30:01.598Z,30.65